createdAt,value
2018-01-30T00:00:30.360Z,7.03
2018-01-30T00:01:30.318Z,6.89
2018-01-30T00:02:30.277Z,6.89
2018-01-30T00:03:30.237Z,6.87
2018-01-30T00:04:30.190Z,6.82
2018-01-30T00:05:30.153Z,6.84
2018-01-30T00:06:30.113Z,6.77
2018-01-30T00:07:30.072Z,6.82
2018-01-30T00:08:30.029Z,6.85
2018-01-30T00:09:29.987Z,6.85
2018-01-30T00:10:29.944Z,6.85
2018-01-30T00:11:29.906Z,6.70
2018-01-30T00:12:29.881Z,6.77
2018-01-30T00:13:29.843Z,6.82
2018-01-30T00:14:29.786Z,6.75
2018-01-30T00:15:29.742Z,6.88
2018-01-30T00:16:29.709Z,6.72
2018-01-30T00:17:29.669Z,6.70
2018-01-30T00:18:29.622Z,6.85
2018-01-30T00:19:29.584Z,6.77
2018-01-30T00:20:29.546Z,6.69
2018-01-30T00:21:29.500Z,6.72
2018-01-30T00:22:29.456Z,6.72
2018-01-30T00:23:29.417Z,6.70
2018-01-30T00:24:29.376Z,6.70
2018-01-30T00:25:29.331Z,6.69
2018-01-30T00:26:29.300Z,6.69
2018-01-30T00:27:29.252Z,6.70
2018-01-30T00:28:29.207Z,6.64
2018-01-30T00:29:29.169Z,6.67
2018-01-30T00:30:29.136Z,6.66
2018-01-30T00:31:29.092Z,6.63
2018-01-30T00:32:29.053Z,6.74
2018-01-30T00:33:29.027Z,6.69
2018-01-30T00:34:28.962Z,6.70
2018-01-30T00:35:28.924Z,6.69
2018-01-30T00:36:28.884Z,6.72
2018-01-30T00:37:28.848Z,6.69
2018-01-30T00:38:28.798Z,6.67
2018-01-30T00:39:28.758Z,6.74
2018-01-30T00:40:28.727Z,6.72
2018-01-30T00:41:28.678Z,6.63
2018-01-30T00:42:28.645Z,6.69
2018-01-30T00:43:28.618Z,6.74
2018-01-30T00:44:28.556Z,6.72
2018-01-30T00:45:28.518Z,6.72
2018-01-30T00:46:28.478Z,6.77
2018-01-30T00:47:28.430Z,6.63
2018-01-30T00:48:28.393Z,6.64
2018-01-30T00:49:28.347Z,6.70
2018-01-30T00:50:28.308Z,6.64
2018-01-30T00:51:28.272Z,6.79
2018-01-30T00:52:28.270Z,6.74
2018-01-30T00:53:28.188Z,6.69
2018-01-30T00:54:28.166Z,6.75
2018-01-30T00:55:28.111Z,6.74
2018-01-30T00:56:28.066Z,6.78
2018-01-30T00:57:28.023Z,6.70
2018-01-30T00:58:27.982Z,6.67
2018-01-30T00:59:27.935Z,6.70
2018-01-30T01:00:27.906Z,6.74
2018-01-30T01:01:27.892Z,6.75
2018-01-30T01:02:27.813Z,6.70
2018-01-30T01:03:27.775Z,6.74
2018-01-30T01:04:27.730Z,6.74
2018-01-30T01:05:27.757Z,6.72
2018-01-30T01:06:27.656Z,6.82
2018-01-30T01:07:27.625Z,6.78
2018-01-30T01:08:27.583Z,6.77
2018-01-30T01:09:27.535Z,6.67
2018-01-30T01:10:27.498Z,6.74
2018-01-30T01:11:27.453Z,6.75
2018-01-30T01:12:27.413Z,6.78
2018-01-30T01:13:27.370Z,6.87
2018-01-30T01:14:27.319Z,6.82
2018-01-30T01:15:27.295Z,6.82
2018-01-30T01:16:27.238Z,6.75
2018-01-30T01:17:27.204Z,6.74
2018-01-30T01:18:27.159Z,6.79
2018-01-30T01:19:27.116Z,6.75
2018-01-30T01:20:27.079Z,6.75
2018-01-30T01:21:27.039Z,6.75
2018-01-30T01:22:26.999Z,6.63
2018-01-30T01:23:26.946Z,6.63
2018-01-30T01:24:26.921Z,6.67
2018-01-30T01:25:26.878Z,6.57
2018-01-30T01:26:26.835Z,6.57
2018-01-30T01:27:26.789Z,6.51
2018-01-30T01:28:26.747Z,6.56
2018-01-30T01:29:26.704Z,6.57
2018-01-30T01:30:26.661Z,6.56
2018-01-30T01:31:26.623Z,6.57
2018-01-30T01:32:26.579Z,6.52
2018-01-30T01:33:26.548Z,6.49
2018-01-30T01:34:26.500Z,6.54
2018-01-30T01:35:26.458Z,6.59
2018-01-30T01:36:26.418Z,6.57
2018-01-30T01:37:26.379Z,6.62
2018-01-30T01:38:26.337Z,6.56
2018-01-30T01:39:26.310Z,6.57
2018-01-30T01:40:26.253Z,6.62
2018-01-30T01:41:26.214Z,6.54
2018-01-30T01:42:26.170Z,6.59
2018-01-30T01:43:26.129Z,6.54
2018-01-30T01:44:26.086Z,6.64
2018-01-30T01:45:26.045Z,6.44
2018-01-30T01:46:26.010Z,6.51
2018-01-30T01:47:25.970Z,6.46
2018-01-30T01:48:25.923Z,6.44
2018-01-30T01:49:25.880Z,6.52
2018-01-30T01:50:25.839Z,6.44
2018-01-30T01:51:25.810Z,6.52
2018-01-30T01:52:25.759Z,6.39
2018-01-30T01:53:25.719Z,6.44
2018-01-30T01:54:25.679Z,6.42
2018-01-30T01:55:25.649Z,6.42
2018-01-30T01:56:25.594Z,6.39
2018-01-30T01:57:25.553Z,6.51
2018-01-30T01:58:25.511Z,6.49
2018-01-30T01:59:25.472Z,6.59
2018-01-30T02:00:25.430Z,6.41
2018-01-30T02:01:25.387Z,6.49
2018-01-30T02:02:25.347Z,6.51
2018-01-30T02:03:25.307Z,6.52
2018-01-30T02:04:25.264Z,6.42
2018-01-30T02:05:25.229Z,6.42
2018-01-30T02:06:25.183Z,6.52
2018-01-30T02:07:25.139Z,6.42
2018-01-30T02:08:25.101Z,6.42
2018-01-30T02:09:25.056Z,6.42
2018-01-30T02:10:25.029Z,6.41
2018-01-30T02:11:24.979Z,6.38
2018-01-30T02:12:24.932Z,6.42
2018-01-30T02:13:24.892Z,6.38
2018-01-30T02:14:24.854Z,6.42
2018-01-30T02:15:24.809Z,6.42
2018-01-30T02:16:24.773Z,6.41
2018-01-30T02:17:24.737Z,6.42
2018-01-30T02:18:24.690Z,6.42
2018-01-30T02:19:24.649Z,6.46
2018-01-30T02:20:24.608Z,6.38
2018-01-30T02:21:24.568Z,6.39
2018-01-30T02:22:24.522Z,6.39
2018-01-30T02:23:24.482Z,6.39
2018-01-30T02:24:24.438Z,6.45
2018-01-30T02:25:24.400Z,6.39
2018-01-30T02:26:24.364Z,6.41
2018-01-30T02:27:24.328Z,6.42
2018-01-30T02:28:24.278Z,6.45
2018-01-30T02:29:24.239Z,6.45
2018-01-30T02:30:24.198Z,6.41
2018-01-30T02:31:24.156Z,6.41
2018-01-30T02:32:24.116Z,6.46
2018-01-30T02:33:24.075Z,6.44
2018-01-30T02:34:24.034Z,6.31
2018-01-30T02:35:23.991Z,6.41
2018-01-30T02:36:23.951Z,6.38
2018-01-30T02:37:23.907Z,6.48
2018-01-30T02:38:23.865Z,6.33
2018-01-30T02:39:23.824Z,6.31
2018-01-30T02:40:23.783Z,6.30
2018-01-30T02:41:23.742Z,6.31
2018-01-30T02:42:23.705Z,6.28
2018-01-30T02:43:23.671Z,6.22
2018-01-30T02:44:23.619Z,6.30
2018-01-30T02:45:23.583Z,6.31
2018-01-30T02:46:23.544Z,6.33
2018-01-30T02:47:23.497Z,6.35
2018-01-30T02:48:23.453Z,6.38
2018-01-30T02:49:23.418Z,6.30
2018-01-30T02:50:23.371Z,6.30
2018-01-30T02:51:23.331Z,6.31
2018-01-30T02:52:23.302Z,6.28
2018-01-30T02:53:23.250Z,6.26
2018-01-30T02:54:23.213Z,6.28
2018-01-30T02:55:23.167Z,6.27
2018-01-30T02:56:23.125Z,6.30
2018-01-30T02:57:23.094Z,6.30
2018-01-30T02:58:23.043Z,6.26
2018-01-30T02:59:23.006Z,6.35
2018-01-30T03:00:22.960Z,6.30
2018-01-30T03:01:22.922Z,6.31
2018-01-30T03:02:22.891Z,6.30
2018-01-30T03:03:22.838Z,6.28
2018-01-30T03:04:22.800Z,6.33
2018-01-30T03:05:22.754Z,6.27
2018-01-30T03:06:22.718Z,6.33
2018-01-30T03:07:22.679Z,6.33
2018-01-30T03:08:22.650Z,6.33
2018-01-30T03:09:22.592Z,6.38
2018-01-30T03:10:22.553Z,6.48
2018-01-30T03:11:22.509Z,6.42
2018-01-30T03:12:22.467Z,6.42
2018-01-30T03:13:22.440Z,6.42
2018-01-30T03:14:22.387Z,6.44
2018-01-30T03:15:22.354Z,6.38
2018-01-30T03:16:22.307Z,6.44
2018-01-30T03:17:22.264Z,6.44
2018-01-30T03:18:22.221Z,6.45
2018-01-30T03:19:22.180Z,6.51
2018-01-30T03:20:22.141Z,6.44
2018-01-30T03:21:22.098Z,6.39
2018-01-30T03:22:22.062Z,6.41
2018-01-30T03:23:22.024Z,6.42
2018-01-30T03:24:21.974Z,6.49
2018-01-30T03:25:21.936Z,6.49
2018-01-30T03:26:21.895Z,6.49
2018-01-30T03:27:21.855Z,6.44
2018-01-30T03:28:21.812Z,6.38
2018-01-30T03:29:21.780Z,6.46
2018-01-30T03:30:21.734Z,6.39
2018-01-30T03:31:21.695Z,6.45
2018-01-30T03:32:21.648Z,6.49
2018-01-30T03:33:21.610Z,6.44
2018-01-30T03:34:21.566Z,6.44
2018-01-30T03:35:21.549Z,6.39
2018-01-30T03:36:21.503Z,6.48
2018-01-30T03:37:21.478Z,6.51
2018-01-30T03:38:21.400Z,6.56
2018-01-30T03:39:21.369Z,6.52
2018-01-30T03:40:21.349Z,6.52
2018-01-30T03:41:21.284Z,6.52
2018-01-30T03:42:21.236Z,6.59
2018-01-30T03:43:21.193Z,6.54
2018-01-30T03:44:21.161Z,6.59
2018-01-30T03:45:21.128Z,6.54
2018-01-30T03:46:21.136Z,6.64
2018-01-30T03:47:21.029Z,6.54
2018-01-30T03:48:20.997Z,6.52
2018-01-30T03:49:20.953Z,6.59
2018-01-30T03:50:20.919Z,6.56
2018-01-30T03:51:20.866Z,6.60
2018-01-30T03:52:20.833Z,6.67
2018-01-30T03:53:20.781Z,6.66
2018-01-30T03:54:20.748Z,6.75
2018-01-30T03:55:20.702Z,6.60
2018-01-30T03:56:20.665Z,6.52
2018-01-30T03:57:20.627Z,6.63
2018-01-30T03:58:20.589Z,6.62
2018-01-30T03:59:20.537Z,6.72
2018-01-30T04:00:20.499Z,6.69
2018-01-30T04:01:20.459Z,6.70
2018-01-30T04:02:20.410Z,6.59
2018-01-30T04:03:20.375Z,6.56
2018-01-30T04:04:20.335Z,6.54
2018-01-30T04:05:20.292Z,6.52
2018-01-30T04:06:20.250Z,6.51
2018-01-30T04:07:20.209Z,6.49
2018-01-30T04:08:20.165Z,6.49
2018-01-30T04:09:20.133Z,6.52
2018-01-30T04:10:20.093Z,6.56
2018-01-30T04:11:20.045Z,6.46
2018-01-30T04:12:20.005Z,6.42
2018-01-30T04:13:19.964Z,6.42
2018-01-30T04:14:19.926Z,6.44
2018-01-30T04:15:19.880Z,6.46
2018-01-30T04:16:19.840Z,6.39
2018-01-30T04:17:19.798Z,6.44
2018-01-30T04:18:19.756Z,6.45
2018-01-30T04:19:19.714Z,6.42
2018-01-30T04:20:19.676Z,6.30
2018-01-30T04:21:19.630Z,6.28
2018-01-30T04:22:19.605Z,6.27
2018-01-30T04:23:19.550Z,6.27
2018-01-30T04:24:19.505Z,6.33
2018-01-30T04:25:19.470Z,6.31
2018-01-30T04:26:19.427Z,6.35
2018-01-30T04:27:19.384Z,6.33
2018-01-30T04:28:19.346Z,6.30
2018-01-30T04:29:19.303Z,6.30
2018-01-30T04:30:19.260Z,6.33
2018-01-30T04:31:19.229Z,6.28
2018-01-30T04:32:19.175Z,6.26
2018-01-30T04:33:19.136Z,6.27
2018-01-30T04:34:19.094Z,6.33
2018-01-30T04:35:19.056Z,6.28
2018-01-30T04:36:19.011Z,6.24
2018-01-30T04:37:18.988Z,6.27
2018-01-30T04:38:18.938Z,6.31
2018-01-30T04:39:18.889Z,6.31
2018-01-30T04:40:18.852Z,6.31
2018-01-30T04:41:18.812Z,6.27
2018-01-30T04:42:18.769Z,6.30
2018-01-30T04:43:18.727Z,6.22
2018-01-30T04:44:18.711Z,6.26
2018-01-30T04:45:18.641Z,6.27
2018-01-30T04:46:18.606Z,6.31
2018-01-30T04:47:18.563Z,6.22
2018-01-30T04:48:18.520Z,6.20
2018-01-30T04:49:18.478Z,6.17
2018-01-30T04:50:18.435Z,6.30
2018-01-30T04:51:18.395Z,6.26
2018-01-30T04:52:18.358Z,6.28
2018-01-30T04:53:18.322Z,6.19
2018-01-30T04:54:18.274Z,6.24
2018-01-30T04:55:18.233Z,6.24
2018-01-30T04:56:18.197Z,6.14
2018-01-30T04:57:18.152Z,6.20
2018-01-30T04:58:18.110Z,6.20
2018-01-30T04:59:18.072Z,6.12
2018-01-30T05:00:18.032Z,6.14
2018-01-30T05:01:17.998Z,6.12
2018-01-30T05:02:17.943Z,6.11
2018-01-30T05:03:17.904Z,6.17
2018-01-30T05:04:17.863Z,6.17
2018-01-30T05:05:17.822Z,6.09
2018-01-30T05:06:17.781Z,6.12
2018-01-30T05:07:17.745Z,6.05
2018-01-30T05:08:17.703Z,6.08
2018-01-30T05:09:17.661Z,6.17
2018-01-30T05:10:17.616Z,6.08
2018-01-30T05:11:17.577Z,6.07
2018-01-30T05:12:17.535Z,6.08
2018-01-30T05:13:17.495Z,6.05
2018-01-30T05:14:17.474Z,6.09
2018-01-30T05:15:17.410Z,6.07
2018-01-30T05:16:17.380Z,6.05
2018-01-30T05:17:17.331Z,6.01
2018-01-30T05:18:17.290Z,6.04
2018-01-30T05:19:17.258Z,6.05
2018-01-30T05:20:17.206Z,5.91
2018-01-30T05:21:17.174Z,5.97
2018-01-30T05:22:17.126Z,5.91
2018-01-30T05:23:17.084Z,5.97
2018-01-30T05:24:17.041Z,5.98
2018-01-30T05:25:17.002Z,6.02
2018-01-30T05:26:16.963Z,6.08
2018-01-30T05:27:16.921Z,5.98
2018-01-30T05:28:16.876Z,6.08
2018-01-30T05:29:16.836Z,6.08
2018-01-30T05:30:16.795Z,6.11
2018-01-30T05:31:16.753Z,6.09
2018-01-30T05:32:16.714Z,6.08
2018-01-30T05:33:16.671Z,6.09
2018-01-30T05:34:16.628Z,6.11
2018-01-30T05:35:16.588Z,6.08
2018-01-30T05:36:16.552Z,6.07
2018-01-30T05:37:16.514Z,6.09
2018-01-30T05:38:16.466Z,6.16
2018-01-30T05:39:16.426Z,6.12
2018-01-30T05:40:16.381Z,6.09
2018-01-30T05:41:16.347Z,6.17
2018-01-30T05:42:16.342Z,6.17
2018-01-30T05:43:16.256Z,6.14
2018-01-30T05:44:16.220Z,6.14
2018-01-30T05:45:16.177Z,6.17
2018-01-30T05:46:16.147Z,6.19
2018-01-30T05:47:16.100Z,6.17
2018-01-30T05:48:16.049Z,6.19
2018-01-30T05:49:16.014Z,6.17
2018-01-30T05:50:15.971Z,6.17
2018-01-30T05:51:15.935Z,6.19
2018-01-30T05:52:15.914Z,6.09
2018-01-30T05:53:15.847Z,6.19
2018-01-30T05:54:15.817Z,6.17
2018-01-30T05:55:15.766Z,6.17
2018-01-30T05:56:15.736Z,6.17
2018-01-30T05:57:15.688Z,6.12
2018-01-30T05:58:15.640Z,6.14
2018-01-30T05:59:15.602Z,6.14
2018-01-30T06:00:15.559Z,6.14
2018-01-30T06:01:15.527Z,6.14
2018-01-30T06:02:15.481Z,6.08
2018-01-30T06:03:15.437Z,6.09
2018-01-30T06:04:15.397Z,6.14
2018-01-30T06:05:15.369Z,6.07
2018-01-30T06:06:15.318Z,6.08
2018-01-30T06:07:15.287Z,6.09
2018-01-30T06:08:15.227Z,6.11
2018-01-30T06:09:15.189Z,6.16
2018-01-30T06:10:15.154Z,6.12
2018-01-30T06:11:15.137Z,6.11
2018-01-30T06:12:15.066Z,6.09
2018-01-30T06:13:15.023Z,6.17
2018-01-30T06:14:14.987Z,6.19
2018-01-30T06:15:14.965Z,6.22
2018-01-30T06:16:14.939Z,6.16
2018-01-30T06:17:14.900Z,6.20
2018-01-30T06:18:14.840Z,6.17
2018-01-30T06:19:14.788Z,6.17
2018-01-30T06:20:14.747Z,6.20
2018-01-30T06:21:14.699Z,6.17
2018-01-30T06:22:14.653Z,6.19
2018-01-30T06:23:14.611Z,6.17
2018-01-30T06:24:14.565Z,6.22
2018-01-30T06:25:14.537Z,6.22
2018-01-30T06:26:14.489Z,6.27
2018-01-30T06:27:14.448Z,6.19
2018-01-30T06:28:14.404Z,6.33
2018-01-30T06:29:14.363Z,6.27
2018-01-30T06:30:14.321Z,6.22
2018-01-30T06:31:14.284Z,6.27
2018-01-30T06:32:14.249Z,6.30
2018-01-30T06:33:14.198Z,6.28
2018-01-30T06:34:14.160Z,6.26
2018-01-30T06:35:14.122Z,6.31
2018-01-30T06:36:14.075Z,6.27
2018-01-30T06:37:14.041Z,6.30
2018-01-30T06:38:13.993Z,6.30
2018-01-30T06:39:13.951Z,6.19
2018-01-30T06:40:13.910Z,6.31
2018-01-30T06:41:13.868Z,6.28
2018-01-30T06:42:13.831Z,6.27
2018-01-30T06:43:13.787Z,6.30
2018-01-30T06:44:13.767Z,6.31
2018-01-30T06:45:13.712Z,6.31
2018-01-30T06:46:13.660Z,6.39
2018-01-30T06:47:13.631Z,6.31
2018-01-30T06:48:13.615Z,6.31
2018-01-30T06:49:13.540Z,6.38
2018-01-30T06:50:13.498Z,6.42
2018-01-30T06:51:13.461Z,6.39
2018-01-30T06:52:13.412Z,6.39
2018-01-30T06:53:13.383Z,6.28
2018-01-30T06:54:13.341Z,6.39
2018-01-30T06:55:13.299Z,6.38
2018-01-30T06:56:13.265Z,6.41
2018-01-30T06:57:13.210Z,6.39
2018-01-30T06:58:13.171Z,6.49
2018-01-30T06:59:13.131Z,6.38
2018-01-30T07:00:13.105Z,6.52
2018-01-30T07:01:13.045Z,6.52
2018-01-30T07:02:13.013Z,6.51
2018-01-30T07:03:12.969Z,6.42
2018-01-30T07:04:12.930Z,6.42
2018-01-30T07:05:12.898Z,6.38
2018-01-30T07:06:12.842Z,6.41
2018-01-30T07:07:12.802Z,6.39
2018-01-30T07:08:12.775Z,6.46
2018-01-30T07:09:12.732Z,6.31
2018-01-30T07:10:12.686Z,6.41
2018-01-30T07:11:12.642Z,6.46
2018-01-30T07:12:12.604Z,6.44
2018-01-30T07:13:12.559Z,6.39
2018-01-30T07:14:12.514Z,6.42
2018-01-30T07:15:12.479Z,6.52
2018-01-30T07:16:12.450Z,6.54
2018-01-30T07:17:12.403Z,6.54
2018-01-30T07:18:12.351Z,6.54
2018-01-30T07:19:12.307Z,6.41
2018-01-30T07:20:12.274Z,6.63
2018-01-30T07:21:12.233Z,6.63
2018-01-30T07:22:12.193Z,6.64
2018-01-30T07:23:12.146Z,6.64
2018-01-30T07:24:12.103Z,6.57
2018-01-30T07:25:12.071Z,6.52
2018-01-30T07:26:12.023Z,6.60
2018-01-30T07:27:11.985Z,6.56
2018-01-30T07:28:11.940Z,6.67
2018-01-30T07:29:11.898Z,6.67
2018-01-30T07:30:11.869Z,6.67
2018-01-30T07:31:11.819Z,6.74
2018-01-30T07:32:11.776Z,6.70
2018-01-30T07:33:11.747Z,6.63
2018-01-30T07:34:11.694Z,6.59
2018-01-30T07:35:11.664Z,6.66
2018-01-30T07:36:11.613Z,6.66
2018-01-30T07:37:11.576Z,6.66
2018-01-30T07:38:11.545Z,6.56
2018-01-30T07:39:11.501Z,6.62
2018-01-30T07:40:11.448Z,6.64
2018-01-30T07:41:11.408Z,6.57
2018-01-30T07:42:11.368Z,6.59
2018-01-30T07:43:11.326Z,6.49
2018-01-30T07:44:11.286Z,6.59
2018-01-30T07:45:11.246Z,6.63
2018-01-30T07:46:11.203Z,6.62
2018-01-30T07:47:11.163Z,6.67
2018-01-30T07:48:11.124Z,6.57
2018-01-30T07:49:11.089Z,6.66
2018-01-30T07:50:11.040Z,6.60
2018-01-30T07:51:11.003Z,6.62
2018-01-30T07:52:10.960Z,6.62
2018-01-30T07:53:10.920Z,6.67
2018-01-30T07:54:10.880Z,6.74
2018-01-30T07:55:10.839Z,6.77
2018-01-30T07:56:10.800Z,6.63
2018-01-30T07:57:10.762Z,6.62
2018-01-30T07:58:10.761Z,6.77
2018-01-30T07:59:10.675Z,6.74
2018-01-30T08:00:10.639Z,6.63
2018-01-30T08:01:10.591Z,6.70
2018-01-30T08:02:10.556Z,6.75
2018-01-30T08:03:10.520Z,6.64
2018-01-30T08:04:10.470Z,6.72
2018-01-30T08:05:10.430Z,6.67
2018-01-30T08:06:10.484Z,6.67
2018-01-30T08:07:10.352Z,6.74
2018-01-30T08:08:10.318Z,6.82
2018-01-30T08:09:10.275Z,6.72
2018-01-30T08:10:10.496Z,6.72
2018-01-30T08:11:10.192Z,6.74
2018-01-30T08:12:10.150Z,6.81
2018-01-30T08:13:10.116Z,6.82
2018-01-30T08:14:10.064Z,6.70
2018-01-30T08:15:10.055Z,6.77
2018-01-30T08:16:10.011Z,6.69
2018-01-30T08:17:09.946Z,6.66
2018-01-30T08:18:09.941Z,6.64
2018-01-30T08:19:09.869Z,6.67
2018-01-30T08:20:09.838Z,6.69
2018-01-30T08:21:09.787Z,6.67
2018-01-30T08:22:09.753Z,6.72
2018-01-30T08:23:09.715Z,6.84
2018-01-30T08:24:09.692Z,6.82
2018-01-30T08:25:09.619Z,6.70
2018-01-30T08:26:09.596Z,6.67
2018-01-30T08:27:09.536Z,6.77
2018-01-30T08:28:09.497Z,6.64
2018-01-30T08:29:09.455Z,6.66
2018-01-30T08:30:09.465Z,6.75
2018-01-30T08:31:09.379Z,6.74
2018-01-30T08:32:09.364Z,6.69
2018-01-30T08:33:09.301Z,6.67
2018-01-30T08:34:09.276Z,6.67
2018-01-30T08:35:09.223Z,6.70
2018-01-30T08:36:09.184Z,6.69
2018-01-30T08:37:09.130Z,6.81
2018-01-30T08:38:09.100Z,6.74
2018-01-30T08:39:09.097Z,6.67
2018-01-30T08:40:09.009Z,6.72
2018-01-30T08:41:09.484Z,6.70
2018-01-30T08:42:08.971Z,6.78
2018-01-30T08:43:08.888Z,6.82
2018-01-30T08:44:08.868Z,6.87
2018-01-30T08:45:08.824Z,6.79
2018-01-30T08:46:08.776Z,6.79
2018-01-30T08:47:08.739Z,6.77
2018-01-30T08:48:08.685Z,6.79
2018-01-30T08:49:08.653Z,6.87
2018-01-30T08:50:08.610Z,6.82
2018-01-30T08:51:08.576Z,6.81
2018-01-30T08:52:08.520Z,6.79
2018-01-30T08:53:08.480Z,6.84
2018-01-30T08:54:08.460Z,6.87
2018-01-30T08:55:08.397Z,6.89
2018-01-30T08:56:08.365Z,6.96
2018-01-30T08:57:08.327Z,6.89
2018-01-30T08:58:08.292Z,6.87
2018-01-30T08:59:08.246Z,6.88
2018-01-30T09:00:08.205Z,6.87
2018-01-30T09:01:08.160Z,6.99
2018-01-30T09:02:08.127Z,6.93
2018-01-30T09:03:08.092Z,6.81
2018-01-30T09:04:08.040Z,6.88
2018-01-30T09:05:07.995Z,7.03
2018-01-30T09:06:07.974Z,6.93
2018-01-30T09:07:07.919Z,6.92
2018-01-30T09:08:07.878Z,6.84
2018-01-30T09:09:07.835Z,6.99
2018-01-30T09:10:07.804Z,7.06
2018-01-30T09:11:07.905Z,6.87
2018-01-30T09:12:07.731Z,7.00
2018-01-30T09:13:07.693Z,6.88
2018-01-30T09:14:07.635Z,6.82
2018-01-30T09:15:07.595Z,6.88
2018-01-30T09:16:07.551Z,6.95
2018-01-30T09:17:07.515Z,6.95
2018-01-30T09:18:07.470Z,6.92
2018-01-30T09:19:07.430Z,6.88
2018-01-30T09:20:07.461Z,6.99
2018-01-30T09:21:07.349Z,6.97
2018-01-30T09:22:07.313Z,6.96
2018-01-30T09:23:07.270Z,6.88
2018-01-30T09:24:07.229Z,6.79
2018-01-30T09:25:07.188Z,6.89
2018-01-30T09:26:07.151Z,6.84
2018-01-30T09:27:07.116Z,6.88
2018-01-30T09:28:07.069Z,6.87
2018-01-30T09:29:07.034Z,6.89
2018-01-30T09:30:06.986Z,7.00
2018-01-30T09:31:06.945Z,7.00
2018-01-30T09:32:06.911Z,7.02
2018-01-30T09:33:06.871Z,6.99
2018-01-30T09:34:06.822Z,7.03
2018-01-30T09:35:06.785Z,6.89
2018-01-30T09:36:06.751Z,6.99
2018-01-30T09:37:06.708Z,7.02
2018-01-30T09:38:06.673Z,7.03
2018-01-30T09:39:06.622Z,7.05
2018-01-30T09:40:06.584Z,7.15
2018-01-30T09:41:06.545Z,7.28
2018-01-30T09:42:06.502Z,7.02
2018-01-30T09:43:06.460Z,7.10
2018-01-30T09:44:06.419Z,7.13
2018-01-30T09:45:06.382Z,7.14
2018-01-30T09:46:06.341Z,7.03
2018-01-30T09:47:06.301Z,7.18
2018-01-30T09:48:06.268Z,7.07
2018-01-30T09:49:06.228Z,7.06
2018-01-30T09:50:06.183Z,7.13
2018-01-30T09:51:06.149Z,6.99
2018-01-30T09:52:06.111Z,7.02
2018-01-30T09:53:06.068Z,7.05
2018-01-30T09:54:06.026Z,7.11
2018-01-30T09:55:05.980Z,7.13
2018-01-30T09:56:05.947Z,7.06
2018-01-30T09:57:05.900Z,7.13
2018-01-30T09:58:05.862Z,7.20
2018-01-30T09:59:05.815Z,7.17
2018-01-30T10:00:05.779Z,7.23
2018-01-30T10:01:05.740Z,7.15
2018-01-30T10:02:05.705Z,7.23
2018-01-30T10:03:05.656Z,7.21
2018-01-30T10:04:05.629Z,7.02
2018-01-30T10:05:05.578Z,6.97
2018-01-30T10:06:05.536Z,7.11
2018-01-30T10:07:05.494Z,7.18
2018-01-30T10:08:05.455Z,7.25
2018-01-30T10:09:05.415Z,7.03
2018-01-30T10:10:05.373Z,7.13
2018-01-30T10:11:05.344Z,7.18
2018-01-30T10:12:05.292Z,7.24
2018-01-30T10:13:05.321Z,7.18
2018-01-30T10:14:05.251Z,7.06
2018-01-30T10:15:05.172Z,7.10
2018-01-30T10:16:05.148Z,7.06
2018-01-30T10:17:05.104Z,6.99
2018-01-30T10:18:05.054Z,7.05
2018-01-30T10:19:05.014Z,7.24
2018-01-30T10:20:04.973Z,7.23
2018-01-30T10:21:04.932Z,7.24
2018-01-30T10:22:04.891Z,7.31
2018-01-30T10:23:04.865Z,7.15
2018-01-30T10:24:04.816Z,7.25
2018-01-30T10:25:04.772Z,7.21
2018-01-30T10:26:04.737Z,7.18
2018-01-30T10:27:04.706Z,7.24
2018-01-30T10:28:04.663Z,7.21
2018-01-30T10:29:04.613Z,7.07
2018-01-30T10:30:04.570Z,7.03
2018-01-30T10:31:04.529Z,7.14
2018-01-30T10:32:04.489Z,7.24
2018-01-30T10:33:04.448Z,7.21
2018-01-30T10:34:04.408Z,7.23
2018-01-30T10:35:04.376Z,7.31
2018-01-30T10:36:04.332Z,7.29
2018-01-30T10:37:04.293Z,7.23
2018-01-30T10:38:04.268Z,7.32
2018-01-30T10:39:04.226Z,7.28
2018-01-30T10:40:04.188Z,7.28
2018-01-30T10:41:04.127Z,7.21
2018-01-30T10:42:04.091Z,7.29
2018-01-30T10:43:04.049Z,7.32
2018-01-30T10:44:04.024Z,7.32
2018-01-30T10:45:03.969Z,7.17
2018-01-30T10:46:03.943Z,7.21
2018-01-30T10:47:03.900Z,7.11
2018-01-30T10:48:03.851Z,7.14
2018-01-30T10:49:03.831Z,7.05
2018-01-30T10:50:03.788Z,7.06
2018-01-30T10:51:03.736Z,7.05
2018-01-30T10:52:03.688Z,7.14
2018-01-30T10:53:03.649Z,7.15
2018-01-30T10:54:03.660Z,7.21
2018-01-30T10:55:03.568Z,7.24
2018-01-30T10:56:03.524Z,7.23
2018-01-30T10:57:03.558Z,7.13
2018-01-30T10:58:03.458Z,7.11
2018-01-30T10:59:03.491Z,7.13
2018-01-30T11:00:03.380Z,7.15
2018-01-30T11:01:03.346Z,7.17
2018-01-30T11:02:03.300Z,7.23
2018-01-30T11:03:03.280Z,7.21
2018-01-30T11:04:03.208Z,7.15
2018-01-30T11:05:03.176Z,7.14
2018-01-30T11:06:03.125Z,7.23
2018-01-30T11:07:03.103Z,7.14
2018-01-30T11:08:03.090Z,7.28
2018-01-30T11:09:03.010Z,7.24
2018-01-30T11:10:02.964Z,7.17
2018-01-30T11:11:03.021Z,7.33
2018-01-30T11:12:02.893Z,7.33
2018-01-30T11:13:02.850Z,7.31
2018-01-30T11:14:02.819Z,7.33
2018-01-30T11:15:02.855Z,7.28
2018-01-30T11:16:02.727Z,7.38
2018-01-30T11:17:02.684Z,7.42
2018-01-30T11:18:02.677Z,7.31
2018-01-30T11:19:02.603Z,7.29
2018-01-30T11:20:03.516Z,7.35
2018-01-30T11:21:02.521Z,7.38
2018-01-30T11:22:02.482Z,7.32
2018-01-30T11:23:02.446Z,7.36
2018-01-30T11:24:02.396Z,7.40
2018-01-30T11:25:02.369Z,7.40
2018-01-30T11:26:02.322Z,7.43
2018-01-30T11:27:02.291Z,7.43
2018-01-30T11:28:02.246Z,7.35
2018-01-30T11:29:02.204Z,7.48
2018-01-30T11:30:02.174Z,7.61
2018-01-30T11:31:02.143Z,7.56
2018-01-30T11:32:02.089Z,7.50
2018-01-30T11:33:02.045Z,7.51
2018-01-30T11:34:02.010Z,7.48
2018-01-30T11:35:01.956Z,7.38
2018-01-30T11:36:01.927Z,7.40
2018-01-30T11:37:01.877Z,7.50
2018-01-30T11:38:01.852Z,7.35
2018-01-30T11:39:01.799Z,7.45
2018-01-30T11:40:01.788Z,7.47
2018-01-30T11:41:01.717Z,7.66
2018-01-30T11:42:01.675Z,7.72
2018-01-30T11:43:01.637Z,7.76
2018-01-30T11:44:01.599Z,7.77
2018-01-30T11:45:01.568Z,7.66
2018-01-30T11:46:01.523Z,7.58
2018-01-30T11:47:01.478Z,7.66
2018-01-30T11:48:01.434Z,7.63
2018-01-30T11:49:01.396Z,7.77
2018-01-30T11:50:01.359Z,7.72
2018-01-30T11:51:01.324Z,7.69
2018-01-30T11:52:01.282Z,7.67
2018-01-30T11:53:01.237Z,7.87
2018-01-30T11:54:01.232Z,7.77
2018-01-30T11:55:01.158Z,7.61
2018-01-30T11:56:01.123Z,7.60
2018-01-30T11:57:01.081Z,7.58
2018-01-30T11:58:01.045Z,7.66
2018-01-30T11:59:01.005Z,7.72
2018-01-30T12:00:00.966Z,7.58
2018-01-30T12:01:00.962Z,7.63
2018-01-30T12:02:00.877Z,7.67
2018-01-30T12:03:00.843Z,7.61
2018-01-30T12:04:00.799Z,7.69
2018-01-30T12:05:00.759Z,7.69
2018-01-30T12:06:00.716Z,7.82
2018-01-30T12:07:00.708Z,7.88
2018-01-30T12:08:00.640Z,7.67
2018-01-30T12:09:00.600Z,7.69
2018-01-30T12:10:00.566Z,7.67
2018-01-30T12:11:00.521Z,7.69
2018-01-30T12:12:00.483Z,7.82
2018-01-30T12:13:00.443Z,7.76
2018-01-30T12:14:00.397Z,7.66
2018-01-30T12:15:00.360Z,7.75
2018-01-30T12:16:00.322Z,7.76
2018-01-30T12:17:00.279Z,7.61
2018-01-30T12:18:00.247Z,7.69
2018-01-30T12:19:00.222Z,7.75
2018-01-30T12:20:00.165Z,7.70
2018-01-30T12:21:00.149Z,7.67
2018-01-30T12:22:00.082Z,7.72
2018-01-30T12:23:00.047Z,7.69
2018-01-30T12:24:00.005Z,7.80
2018-01-30T12:24:59.959Z,7.70
2018-01-30T12:25:59.924Z,7.79
2018-01-30T12:26:59.887Z,7.76
2018-01-30T12:27:59.858Z,7.67
2018-01-30T12:28:59.812Z,7.69
2018-01-30T12:29:59.768Z,7.56
2018-01-30T12:30:59.726Z,7.61
2018-01-30T12:31:59.682Z,7.75
2018-01-30T12:32:59.644Z,7.90
2018-01-30T12:33:59.608Z,7.95
2018-01-30T12:34:59.564Z,7.91
2018-01-30T12:35:59.523Z,7.95
2018-01-30T12:36:59.483Z,7.88
2018-01-30T12:37:59.442Z,7.85
2018-01-30T12:38:59.403Z,8.01
2018-01-30T12:39:59.367Z,7.88
2018-01-30T12:40:59.325Z,7.97
2018-01-30T12:41:59.283Z,7.98
2018-01-30T12:42:59.244Z,8.05
2018-01-30T12:43:59.204Z,7.88
2018-01-30T12:44:59.173Z,7.88
2018-01-30T12:45:59.128Z,7.77
2018-01-30T12:46:59.113Z,7.70
2018-01-30T12:47:59.046Z,7.72
2018-01-30T12:48:59.016Z,7.66
2018-01-30T12:49:58.965Z,7.73
2018-01-30T12:50:58.932Z,7.82
2018-01-30T12:51:58.894Z,7.76
2018-01-30T12:52:58.847Z,7.80
2018-01-30T12:53:58.814Z,7.82
2018-01-30T12:54:58.772Z,7.85
2018-01-30T12:55:58.734Z,7.83
2018-01-30T12:56:58.692Z,7.67
2018-01-30T12:57:58.648Z,7.80
2018-01-30T12:58:58.608Z,7.79
2018-01-30T12:59:58.571Z,7.85
2018-01-30T13:00:58.541Z,7.95
2018-01-30T13:01:58.502Z,7.82
2018-01-30T13:02:58.459Z,7.87
2018-01-30T13:03:58.414Z,7.82
2018-01-30T13:04:58.371Z,7.80
2018-01-30T13:05:58.337Z,7.73
2018-01-30T13:06:58.292Z,7.61
2018-01-30T13:07:58.282Z,7.76
2018-01-30T13:08:58.212Z,7.70
2018-01-30T13:09:58.173Z,7.73
2018-01-30T13:10:58.133Z,7.70
2018-01-30T13:11:58.094Z,7.63
2018-01-30T13:12:58.049Z,7.70
2018-01-30T13:13:58.021Z,7.82
2018-01-30T13:14:57.990Z,7.70
2018-01-30T13:15:57.944Z,7.60
2018-01-30T13:16:57.909Z,7.73
2018-01-30T13:17:57.888Z,7.75